Time;durP1;ratioP1;P1;durP2;ratioP2;P2;SDS_P1;SDS_P2;PMS_P1;PMS_P2;Temp;Humidity;BMP_temperature;BMP_pressure;BME280_temperature;BME280_humidity;BME280_pressure;Samples;Min_cycle;Max_cycle;Signal;HPM_P1;HPM_P2
2023/09/07 00:01:00;;;;;;;8.85;7.60;;;23.50;99.90;;;;;;6236778;28;82862;-69
2023/09/07 00:04:03;;;;;;;8.32;7.57;;;23.50;99.90;;;;;;6236411;28;84144;-70
2023/09/07 00:07:06;;;;;;;8.23;7.43;;;23.50;99.90;;;;;;6225298;28;84109;-70
2023/09/07 00:10:09;;;;;;;7.88;7.13;;;23.50;99.90;;;;;;6237104;28;84390;-70
2023/09/07 00:13:11;;;;;;;8.25;7.45;;;23.50;99.90;;;;;;6237170;28;84099;-70
2023/09/07 00:16:13;;;;;;;8.27;7.47;;;23.50;99.90;;;;;;6234533;28;86702;-69
2023/09/07 00:19:14;;;;;;;8.40;7.60;;;23.50;99.90;;;;;;6237100;28;83964;-70
2023/09/07 00:22:18;;;;;;;7.90;7.20;;;23.50;99.90;;;;;;6229314;28;84016;-70
2023/09/07 00:25:20;;;;;;;8.30;7.50;;;23.50;99.90;;;;;;6236869;28;83278;-70
2023/09/07 00:28:23;;;;;;;8.05;7.35;;;23.50;99.90;;;;;;6224460;28;84076;-70
2023/09/07 00:31:25;;;;;;;8.50;7.65;;;23.50;99.90;;;;;;6236455;28;84013;-70
2023/09/07 00:34:27;;;;;;;7.70;7.03;;;23.50;99.90;;;;;;6235672;28;84980;-70
2023/09/07 00:37:30;;;;;;;8.55;7.75;;;23.50;99.90;;;;;;6237410;28;84025;-70
2023/09/07 00:40:32;;;;;;;8.15;7.43;;;23.50;99.90;;;;;;6235969;28;84061;-70
2023/09/07 00:43:34;;;;;;;8.27;7.55;;;23.50;99.90;;;;;;6236248;28;84309;-70
2023/09/07 00:46:36;;;;;;;8.73;7.93;;;23.50;99.90;;;;;;6232718;28;82887;-70
2023/09/07 00:49:39;;;;;;;8.77;7.97;;;23.50;99.90;;;;;;6236798;28;84376;-70
2023/09/07 00:52:43;;;;;;;10.10;8.68;;;23.50;99.90;;;;;;6235445;28;83987;-70
2023/09/07 00:55:46;;;;;;;8.45;7.68;;;23.50;99.90;;;;;;6236828;28;83243;-70
2023/09/07 00:58:49;;;;;;;8.77;7.97;;;23.50;99.90;;;;;;6223820;28;84019;-70
2023/09/07 01:01:50;;;;;;;8.82;7.93;;;23.50;99.90;;;;;;6235841;28;84155;-69
2023/09/07 01:04:53;;;;;;;8.30;7.50;;;23.50;99.90;;;;;;6231342;28;85274;-70
2023/09/07 01:08:04;;;;;;;8.65;7.80;;;23.50;99.90;;;;;;6230183;28;84408;-70
2023/09/07 01:11:14;;;;;;;8.55;7.75;;;23.50;99.90;;;;;;6236401;28;84169;-70
2023/09/07 01:14:17;;;;;;;9.02;7.70;;;23.40;99.90;;;;;;6231509;28;83251;-70
2023/09/07 01:17:19;;;;;;;8.80;7.80;;;23.50;99.90;;;;;;6235726;28;83200;-70
2023/09/07 01:20:24;;;;;;;7.90;7.20;;;23.50;99.90;;;;;;6236975;28;83974;-70
2023/09/07 01:23:27;;;;;;;8.25;7.55;;;23.50;99.90;;;;;;6228478;28;84277;-70
2023/09/07 01:26:49;;;;;;;7.93;7.20;;;23.50;99.90;;;;;;6212449;28;83618;-70
2023/09/07 01:29:52;;;;;;;8.30;7.50;;;23.50;99.90;;;;;;6211645;28;83987;-70
2023/09/07 01:32:54;;;;;;;8.23;7.47;;;23.40;99.90;;;;;;6223300;28;84152;-70
2023/09/07 01:35:56;;;;;;;8.70;7.90;;;23.40;99.90;;;;;;6234602;28;84892;-70
2023/09/07 01:38:59;;;;;;;8.10;7.30;;;23.40;99.90;;;;;;6235710;28;83040;-70
2023/09/07 01:42:02;;;;;;;7.97;7.28;;;23.50;99.90;;;;;;6234568;28;83980;-70
2023/09/07 01:45:04;;;;;;;8.65;7.82;;;23.50;99.90;;;;;;6234959;28;84018;-70
2023/09/07 01:48:09;;;;;;;8.45;7.65;;;23.50;99.90;;;;;;6235471;28;84118;-70
2023/09/07 01:51:11;;;;;;;9.00;8.10;;;23.40;99.90;;;;;;6233680;28;83743;-70
2023/09/07 01:54:15;;;;;;;8.40;7.50;;;23.40;99.90;;;;;;6235312;28;83925;-70
2023/09/07 01:57:17;;;;;;;8.38;7.53;;;23.50;99.90;;;;;;6234702;28;83200;-70
2023/09/07 02:00:19;;;;;;;8.70;7.90;;;23.50;99.90;;;;;;6235159;28;84021;-70
2023/09/07 02:03:21;;;;;;;8.45;7.65;;;23.40;99.90;;;;;;6234569;28;84246;-70
2023/09/07 02:06:23;;;;;;;8.65;7.60;;;23.40;99.90;;;;;;6234226;28;84876;-71
2023/09/07 02:09:29;;;;;;;7.78;7.13;;;23.40;99.90;;;;;;6234787;28;82846;-70
2023/09/07 02:12:31;;;;;;;8.85;8.00;;;23.40;99.90;;;;;;6234559;28;84488;-70
2023/09/07 02:15:33;;;;;;;7.90;7.20;;;23.40;99.90;;;;;;6235213;28;83979;-70
2023/09/07 02:18:35;;;;;;;7.95;7.18;;;23.40;99.90;;;;;;6232539;28;83565;-70
2023/09/07 02:21:37;;;;;;;8.02;7.32;;;23.40;99.90;;;;;;6234604;28;83989;-70
2023/09/07 02:24:40;;;;;;;7.85;7.15;;;23.40;99.90;;;;;;6230974;28;82897;-70
2023/09/07 02:27:42;;;;;;;8.55;7.60;;;23.40;99.90;;;;;;6230350;28;82183;-70
2023/09/07 02:30:44;;;;;;;8.65;7.75;;;23.40;99.90;;;;;;6235149;28;84038;-70
2023/09/07 02:33:46;;;;;;;7.82;7.13;;;23.40;99.90;;;;;;6230382;28;84038;-70
2023/09/07 02:36:48;;;;;;;8.18;7.45;;;23.40;99.90;;;;;;6233048;28;84986;-70
2023/09/07 02:39:51;;;;;;;8.48;7.57;;;23.40;99.90;;;;;;6233832;28;84134;-70
2023/09/07 02:42:53;;;;;;;8.43;7.63;;;23.40;99.90;;;;;;6235314;28;83993;-70
2023/09/07 02:45:55;;;;;;;7.78;7.07;;;23.40;99.90;;;;;;6222327;28;83945;-70
2023/09/07 02:48:57;;;;;;;7.80;7.10;;;23.40;99.90;;;;;;6233676;28;84328;-70
2023/09/07 02:51:59;;;;;;;8.18;7.47;;;23.40;99.90;;;;;;6224162;28;84040;-70
2023/09/07 02:55:04;;;;;;;8.60;7.80;;;23.40;99.90;;;;;;6233287;28;83997;-70
2023/09/07 02:58:06;;;;;;;8.35;7.55;;;23.40;99.90;;;;;;6233756;28;82234;-70
2023/09/07 03:01:09;;;;;;;7.72;7.03;;;23.40;99.90;;;;;;6233924;28;84363;-70
2023/09/07 03:04:11;;;;;;;8.52;7.72;;;23.40;99.90;;;;;;6233624;28;83723;-70
2023/09/07 03:07:13;;;;;;;8.40;7.60;;;23.40;99.90;;;;;;6233151;28;85028;-69
2023/09/07 03:10:16;;;;;;;9.18;7.75;;;23.40;99.90;;;;;;6231923;28;84245;-70
2023/09/07 03:13:18;;;;;;;8.27;7.47;;;23.40;99.90;;;;;;6233955;28;82907;-70
2023/09/07 03:16:20;;;;;;;8.23;7.20;;;23.40;99.90;;;;;;6234500;28;82933;-70
2023/09/07 03:19:22;;;;;;;8.38;7.55;;;23.40;99.90;;;;;;6233739;28;84381;-70
2023/09/07 03:22:24;;;;;;;8.50;7.70;;;23.40;99.90;;;;;;6232657;28;84101;-70
2023/09/07 03:25:28;;;;;;;8.77;7.97;;;23.40;99.90;;;;;;6229260;28;84103;-69
2023/09/07 03:28:30;;;;;;;8.73;7.93;;;23.40;99.90;;;;;;6234020;28;83226;-69
2023/09/07 03:31:32;;;;;;;8.23;7.45;;;23.40;99.90;;;;;;6232598;28;83921;-69
2023/09/07 03:34:36;;;;;;;8.13;7.43;;;23.40;99.90;;;;;;6233025;28;84057;-70
2023/09/07 03:37:38;;;;;;;7.47;6.78;;;23.40;99.90;;;;;;6232356;28;84150;-69
2023/09/07 03:40:41;;;;;;;8.57;7.78;;;23.40;99.90;;;;;;6232835;28;84036;-69
2023/09/07 03:43:44;;;;;;;7.93;7.22;;;23.40;99.90;;;;;;6232618;28;82900;-69
2023/09/07 03:46:48;;;;;;;8.15;7.45;;;23.40;99.90;;;;;;6233645;28;83974;-69
2023/09/07 03:49:50;;;;;;;8.95;8.15;;;23.40;99.90;;;;;;6227419;28;84068;-69
2023/09/07 03:52:52;;;;;;;9.63;8.73;;;23.40;99.90;;;;;;6232004;28;83929;-68
2023/09/07 03:55:55;;;;;;;8.63;7.82;;;23.40;99.90;;;;;;6233143;28;84072;-68
2023/09/07 03:58:57;;;;;;;8.35;7.63;;;23.40;99.90;;;;;;6233442;28;83382;-69
2023/09/07 04:01:59;;;;;;;8.45;7.65;;;23.40;99.90;;;;;;6232142;28;84122;-69
2023/09/07 04:05:03;;;;;;;7.95;7.25;;;23.40;99.90;;;;;;6233764;28;83016;-68
2023/09/07 04:08:05;;;;;;;8.02;7.22;;;23.50;99.90;;;;;;6232266;28;84033;-68
2023/09/07 04:11:09;;;;;;;8.27;7.47;;;23.50;99.90;;;;;;6222236;28;84152;-69
2023/09/07 04:14:11;;;;;;;7.90;7.20;;;23.50;99.90;;;;;;6230764;28;84149;-69
2023/09/07 04:17:13;;;;;;;7.88;7.18;;;23.50;99.90;;;;;;6233451;28;84030;-69
2023/09/07 04:20:15;;;;;;;8.25;7.55;;;23.50;99.90;;;;;;6235783;28;84108;-68
2023/09/07 04:23:17;;;;;;;8.05;7.30;;;23.50;99.90;;;;;;6237471;28;83990;-70
2023/09/07 04:26:20;;;;;;;8.02;7.20;;;23.50;99.90;;;;;;6236391;28;84005;-71
2023/09/07 04:29:22;;;;;;;7.30;6.60;;;23.50;99.90;;;;;;6236499;28;83572;-71
2023/09/07 04:32:24;;;;;;;9.48;7.30;;;23.50;99.90;;;;;;6234234;28;84018;-70
2023/09/07 04:35:30;;;;;;;7.00;6.35;;;23.50;99.90;;;;;;6236108;28;84496;-71
2023/09/07 04:38:32;;;;;;;7.05;6.35;;;23.50;99.90;;;;;;6235395;28;84888;-70
2023/09/07 04:41:35;;;;;;;7.10;6.40;;;23.50;99.90;;;;;;6236545;28;83980;-70
2023/09/07 04:44:37;;;;;;;9.60;6.80;;;23.50;99.90;;;;;;6235662;28;83663;-71
2023/09/07 04:47:39;;;;;;;13.40;8.15;;;23.50;99.90;;;;;;6226804;28;84309;-71
2023/09/07 04:50:41;;;;;;;21.02;9.93;;;23.50;99.90;;;;;;6235477;28;82853;-71
2023/09/07 04:53:43;;;;;;;24.33;10.48;;;23.50;99.90;;;;;;6237187;28;84055;-71
2023/09/07 04:56:46;;;;;;;16.92;8.63;;;23.50;99.90;;;;;;6234385;28;84041;-71
2023/09/07 04:59:48;;;;;;;16.95;8.43;;;23.50;99.90;;;;;;6235655;28;82612;-70
2023/09/07 05:02:50;;;;;;;21.15;10.23;;;23.60;99.90;;;;;;6235736;28;84147;-70
2023/09/07 05:05:54;;;;;;;14.70;8.10;;;23.60;99.90;;;;;;6234508;28;83174;-70
2023/09/07 05:08:56;;;;;;;11.23;6.40;;;23.50;99.90;;;;;;6235782;28;83890;-70
2023/09/07 05:11:59;;;;;;;11.38;7.13;;;23.60;99.90;;;;;;6235455;28;84070;-70
2023/09/07 05:15:01;;;;;;;11.18;6.45;;;23.60;99.90;;;;;;6233037;28;84061;-70
2023/09/07 05:18:03;;;;;;;13.32;6.43;;;23.60;99.90;;;;;;6227139;28;85153;-70
2023/09/07 05:21:15;;;;;;;13.05;6.88;;;23.60;99.90;;;;;;6234765;28;82894;-70
2023/09/07 05:24:17;;;;;;;24.25;10.27;;;23.60;99.90;;;;;;6232787;28;83925;-70
2023/09/07 05:27:20;;;;;;;27.98;11.85;;;23.60;99.90;;;;;;6234655;28;83946;-71
2023/09/07 05:30:22;;;;;;;24.60;10.68;;;23.50;99.90;;;;;;6235201;28;83371;-70
2023/09/07 05:33:24;;;;;;;17.67;9.50;;;23.60;99.90;;;;;;6233955;28;84124;-70
2023/09/07 05:36:27;;;;;;;19.20;8.95;;;23.60;99.90;;;;;;6234138;28;84007;-70
2023/09/07 05:39:28;;;;;;;14.10;7.63;;;23.50;99.90;;;;;;6225007;28;85086;-70
2023/09/07 05:42:32;;;;;;;12.45;7.03;;;23.50;99.90;;;;;;6235199;28;84041;-70
2023/09/07 05:45:36;;;;;;;10.13;6.57;;;23.50;99.90;;;;;;6231415;28;82951;-70
2023/09/07 05:48:38;;;;;;;8.70;6.07;;;23.50;99.90;;;;;;6233338;28;84270;-71
2023/09/07 05:51:40;;;;;;;9.70;6.10;;;23.50;99.90;;;;;;6233347;28;84029;-71
2023/09/07 05:54:42;;;;;;;9.75;6.05;;;23.50;99.90;;;;;;6235066;28;83976;-70
2023/09/07 05:57:46;;;;;;;7.38;5.45;;;23.60;99.90;;;;;;6236264;28;84545;-70
2023/09/07 06:00:48;;;;;;;10.60;6.82;;;23.60;99.90;;;;;;6232341;28;84571;-70
2023/09/07 06:03:50;;;;;;;5.72;5.13;;;23.60;99.90;;;;;;6226848;28;84154;-71
2023/09/07 06:06:52;;;;;;;5.97;5.38;;;23.60;99.90;;;;;;6232317;28;84194;-71
2023/09/07 06:09:54;;;;;;;5.60;4.97;;;23.50;99.90;;;;;;6230454;28;83847;-71
2023/09/07 06:12:57;;;;;;;5.90;4.80;;;23.60;99.90;;;;;;6227083;28;84053;-70
2023/09/07 06:16:00;;;;;;;8.52;4.82;;;23.60;99.90;;;;;;6228930;28;83997;-70
2023/09/07 06:19:02;;;;;;;6.25;5.03;;;23.60;99.90;;;;;;6233462;28;83902;-70
2023/09/07 06:22:04;;;;;;;5.10;4.60;;;23.70;99.90;;;;;;6233898;28;82860;-71
2023/09/07 06:25:07;;;;;;;6.25;4.60;;;23.60;99.90;;;;;;6233966;28;84042;-70
2023/09/07 06:28:10;;;;;;;6.50;4.60;;;23.60;99.90;;;;;;6232877;28;84010;-71
2023/09/07 06:31:12;;;;;;;5.30;4.75;;;23.60;99.90;;;;;;6232946;28;82191;-70
2023/09/07 06:34:14;;;;;;;5.82;4.43;;;23.60;99.90;;;;;;6222690;28;84305;-71
2023/09/07 06:37:16;;;;;;;6.03;4.55;;;23.60;99.90;;;;;;6232470;28;84157;-70
2023/09/07 06:40:19;;;;;;;5.20;4.50;;;23.60;99.90;;;;;;6232920;28;84980;-71
2023/09/07 06:43:22;;;;;;;5.43;4.40;;;23.70;99.90;;;;;;6233566;28;84060;-71
2023/09/07 06:46:24;;;;;;;5.80;4.70;;;23.70;99.90;;;;;;6231806;28;83843;-71
2023/09/07 06:49:29;;;;;;;7.18;5.03;;;23.70;99.90;;;;;;6233642;28;84080;-71
2023/09/07 06:52:31;;;;;;;4.75;4.18;;;23.80;99.90;;;;;;6233780;28;84313;-71
2023/09/07 06:55:33;;;;;;;5.30;4.35;;;23.90;99.90;;;;;;6233103;28;84093;-73
2023/09/07 06:58:38;;;;;;;6.78;4.60;;;23.90;99.90;;;;;;6232274;28;83278;-73
2023/09/07 07:01:40;;;;;;;6.15;4.55;;;23.90;99.90;;;;;;6232601;28;83223;-73
2023/09/07 07:04:43;;;;;;;9.13;4.80;;;23.90;99.90;;;;;;6233667;28;82900;-73
2023/09/07 07:07:45;;;;;;;6.35;4.43;;;24.00;99.90;;;;;;6233880;28;83976;-71
2023/09/07 07:10:47;;;;;;;6.88;4.60;;;24.00;99.90;;;;;;6228646;28;84981;-73
2023/09/07 07:13:51;;;;;;;5.22;4.55;;;24.00;99.90;;;;;;6233203;28;84263;-72
2023/09/07 07:16:53;;;;;;;8.52;4.60;;;24.00;99.90;;;;;;6221403;28;82891;-73
2023/09/07 07:19:54;;;;;;;4.50;4.10;;;24.00;99.90;;;;;;6232177;28;83905;-74
2023/09/07 07:22:56;;;;;;;6.70;4.97;;;24.00;99.90;;;;;;6232204;28;83965;-74
2023/09/07 07:25:58;;;;;;;7.57;4.60;;;24.00;99.90;;;;;;6232645;28;82894;-75
2023/09/07 07:29:02;;;;;;;7.80;4.60;;;23.90;99.90;;;;;;6233536;28;84008;-72
2023/09/07 07:32:05;;;;;;;4.57;4.10;;;23.90;99.90;;;;;;6232093;28;83328;-73
2023/09/07 07:35:07;;;;;;;7.05;4.68;;;23.90;99.90;;;;;;6233127;28;84053;-73
2023/09/07 07:38:09;;;;;;;5.28;4.43;;;23.90;99.90;;;;;;6231921;28;83046;-75
2023/09/07 07:41:11;;;;;;;5.43;4.18;;;23.90;99.90;;;;;;6230949;28;84991;-73
2023/09/07 07:44:14;;;;;;;6.35;4.30;;;23.90;99.90;;;;;;6231949;28;84023;-71
2023/09/07 07:47:16;;;;;;;5.25;4.75;;;23.90;99.90;;;;;;6232101;28;84042;-72
2023/09/07 07:50:18;;;;;;;4.65;4.15;;;23.90;99.90;;;;;;6236146;28;83976;-72
2023/09/07 07:53:20;;;;;;;5.18;4.15;;;23.90;99.90;;;;;;6236744;28;83974;-72
2023/09/07 07:56:22;;;;;;;4.95;4.45;;;23.90;99.90;;;;;;6236807;28;83991;-72
2023/09/07 07:59:25;;;;;;;6.55;4.82;;;23.90;99.90;;;;;;6237186;28;84363;-72
2023/09/07 08:02:28;;;;;;;5.00;4.03;;;23.90;99.90;;;;;;6237295;28;83219;-71
2023/09/07 08:05:30;;;;;;;4.93;4.43;;;23.90;99.90;;;;;;6237778;28;84350;-72
2023/09/07 08:08:32;;;;;;;5.90;4.82;;;23.90;99.90;;;;;;6235725;28;84381;-72
2023/09/07 08:11:34;;;;;;;5.07;4.60;;;23.90;99.90;;;;;;6236913;28;85256;-73
2023/09/07 08:14:37;;;;;;;4.80;4.30;;;23.90;99.90;;;;;;6237177;28;82890;-72
2023/09/07 08:17:39;;;;;;;4.93;4.38;;;23.90;99.90;;;;;;6234545;28;85826;-72
2023/09/07 08:20:41;;;;;;;5.20;4.47;;;23.90;99.90;;;;;;6235873;28;84035;-73
2023/09/07 08:23:43;;;;;;;7.60;5.03;;;23.90;99.90;;;;;;6236206;28;84325;-72
2023/09/07 08:26:45;;;;;;;4.70;4.30;;;23.90;99.90;;;;;;6237212;28;82881;-73
2023/09/07 08:29:51;;;;;;;5.65;4.55;;;23.90;99.90;;;;;;6234832;28;84010;-71
2023/09/07 08:32:53;;;;;;;4.68;4.28;;;23.90;99.90;;;;;;6235058;28;83382;-72
2023/09/07 08:35:55;;;;;;;5.38;4.45;;;23.90;99.90;;;;;;6236311;28;84075;-72
2023/09/07 08:38:59;;;;;;;7.75;5.13;;;23.90;99.90;;;;;;6234437;28;83980;-71
2023/09/07 08:42:01;;;;;;;4.97;4.30;;;23.90;99.90;;;;;;6235191;28;84941;-72
2023/09/07 08:45:08;;;;;;;5.97;4.65;;;23.90;99.90;;;;;;6234037;28;83969;-72
2023/09/07 08:48:12;;;;;;;4.80;4.30;;;23.90;99.90;;;;;;6235488;28;82946;-71
2023/09/07 08:51:16;;;;;;;5.20;4.60;;;23.90;99.90;;;;;;6235431;28;84297;-72
2023/09/07 08:54:18;;;;;;;4.97;4.47;;;23.90;99.90;;;;;;6234899;28;83460;-73
2023/09/07 08:57:22;;;;;;;4.88;4.43;;;23.90;99.90;;;;;;6235220;28;83995;-73
2023/09/07 09:00:25;;;;;;;5.00;4.50;;;23.90;99.90;;;;;;6234368;28;82873;-72
2023/09/07 09:03:28;;;;;;;5.68;5.05;;;23.90;99.90;;;;;;6235698;28;83248;-72
2023/09/07 09:06:30;;;;;;;5.22;4.38;;;23.90;99.90;;;;;;6235928;28;83324;-72
2023/09/07 09:09:32;;;;;;;4.88;4.47;;;23.90;99.90;;;;;;6234193;28;81972;-72
2023/09/07 09:12:34;;;;;;;5.15;4.65;;;23.90;99.90;;;;;;6230712;28;84979;-72
2023/09/07 09:15:38;;;;;;;4.85;4.28;;;23.90;99.90;;;;;;6227264;28;82945;-72
2023/09/07 09:18:48;;;;;;;6.38;5.00;;;23.90;99.90;;;;;;6233428;28;84130;-72
2023/09/07 09:21:50;;;;;;;6.03;5.18;;;23.90;99.90;;;;;;6234425;28;84275;-72
2023/09/07 09:24:52;;;;;;;5.05;4.55;;;24.00;99.90;;;;;;6235899;28;84050;-73
2023/09/07 09:27:54;;;;;;;5.93;4.45;;;23.90;99.90;;;;;;6233321;28;84012;-72
2023/09/07 09:30:58;;;;;;;4.85;4.45;;;24.00;99.90;;;;;;6234845;28;84192;-72
2023/09/07 09:34:00;;;;;;;6.07;4.93;;;24.00;99.90;;;;;;6234453;28;83414;-73
2023/09/07 09:37:03;;;;;;;5.22;4.75;;;24.00;99.90;;;;;;6233005;28;84173;-72
2023/09/07 09:40:10;;;;;;;5.13;4.60;;;24.00;99.90;;;;;;6223132;28;82948;-73
2023/09/07 09:43:13;;;;;;;5.22;4.72;;;24.00;99.90;;;;;;6233630;28;85241;-73
2023/09/07 09:46:16;;;;;;;5.00;4.60;;;23.90;99.90;;;;;;6234957;28;84023;-72
2023/09/07 09:49:20;;;;;;;4.95;4.55;;;24.00;99.90;;;;;;6234432;28;84119;-73
2023/09/07 09:52:24;;;;;;;5.05;4.60;;;24.00;99.90;;;;;;6232994;28;84027;-72
2023/09/07 09:55:27;;;;;;;5.55;4.80;;;24.00;99.90;;;;;;6235378;28;83943;-72
2023/09/07 09:58:29;;;;;;;4.70;4.30;;;24.00;99.90;;;;;;6233457;28;84023;-73
2023/09/07 10:01:41;;;;;;;4.70;4.30;;;24.00;99.90;;;;;;6232772;28;84183;-72
2023/09/07 10:04:43;;;;;;;4.93;4.43;;;24.00;99.90;;;;;;6233045;28;83783;-73
2023/09/07 10:07:49;;;;;;;5.07;4.68;;;24.10;99.90;;;;;;6234489;28;83932;-72
2023/09/07 10:10:54;;;;;;;4.65;4.25;;;24.10;99.90;;;;;;6232278;28;84488;-72
2023/09/07 10:14:00;;;;;;;5.03;4.50;;;24.10;99.90;;;;;;6231302;28;84996;-72
2023/09/07 10:17:04;;;;;;;5.05;4.55;;;24.10;99.90;;;;;;6233820;28;84053;-72
2023/09/07 10:20:07;;;;;;;6.00;5.00;;;24.10;99.90;;;;;;6234736;28;83499;-73
2023/09/07 10:23:09;;;;;;;5.13;4.65;;;24.10;99.90;;;;;;6233852;28;84103;-72
2023/09/07 10:26:13;;;;;;;4.80;4.40;;;24.10;99.90;;;;;;6233999;28;84074;-72
2023/09/07 10:29:15;;;;;;;5.03;4.53;;;24.10;99.90;;;;;;6224935;28;84189;-72
2023/09/07 10:32:18;;;;;;;5.80;4.85;;;24.10;99.90;;;;;;6233620;28;84135;-72
2023/09/07 10:35:24;;;;;;;5.28;4.75;;;24.10;99.90;;;;;;6233294;28;83246;-74
2023/09/07 10:38:26;;;;;;;7.55;4.80;;;24.10;99.90;;;;;;6234351;28;84395;-72
2023/09/07 10:41:28;;;;;;;6.30;4.80;;;24.20;99.90;;;;;;6233276;28;83692;-71
2023/09/07 10:44:30;;;;;;;6.88;5.28;;;24.20;99.90;;;;;;6233777;28;84971;-71
2023/09/07 10:47:35;;;;;;;5.93;5.43;;;24.30;99.90;;;;;;6231128;28;84116;-72
2023/09/07 10:50:45;;;;;;;6.18;5.65;;;24.40;99.90;;;;;;6233737;28;84148;-73
2023/09/07 10:53:47;;;;;;;8.07;7.30;;;24.50;99.90;;;;;;6233564;28;84058;-72
2023/09/07 10:56:50;;;;;;;10.90;10.00;;;24.60;99.90;;;;;;6234345;28;84335;-73
2023/09/07 10:59:54;;;;;;;11.80;10.80;;;24.70;99.90;;;;;;6226585;28;83954;-72
2023/09/07 11:02:58;;;;;;;8.30;7.50;;;24.80;99.90;;;;;;6232362;28;84048;-72
2023/09/07 11:06:03;;;;;;;7.88;7.10;;;24.90;99.90;;;;;;6234840;28;84177;-72
2023/09/07 11:09:08;;;;;;;7.88;7.18;;;25.00;99.90;;;;;;6232714;28;84405;-73
2023/09/07 11:12:13;;;;;;;7.70;6.90;;;25.20;99.90;;;;;;6231281;28;83937;-72
2023/09/07 11:15:15;;;;;;;6.82;6.13;;;25.20;99.90;;;;;;6221606;28;85097;-72
2023/09/07 11:18:22;;;;;;;6.68;6.07;;;25.50;99.90;;;;;;6233340;28;84059;-72
2023/09/07 11:21:25;;;;;;;6.60;5.93;;;25.70;99.90;;;;;;6233072;28;83014;-72
2023/09/07 11:24:28;;;;;;;6.00;5.50;;;25.80;99.90;;;;;;6235994;28;82843;-72
2023/09/07 11:27:30;;;;;;;8.52;6.20;;;25.90;99.90;;;;;;6235673;28;84359;-72
2023/09/07 11:30:33;;;;;;;6.90;6.22;;;25.80;99.90;;;;;;6237917;28;82729;-72
2023/09/07 11:33:36;;;;;;;5.53;5.03;;;25.80;99.90;;;;;;6237825;28;82904;-73
2023/09/07 11:36:38;;;;;;;5.95;5.40;;;25.80;99.90;;;;;;6235552;28;82226;-72
2023/09/07 11:39:40;;;;;;;6.25;5.32;;;25.70;99.90;;;;;;6237299;28;84130;-71
2023/09/07 11:42:42;;;;;;;5.80;5.30;;;25.60;99.90;;;;;;6236005;28;82904;-71
2023/09/07 11:45:45;;;;;;;5.53;4.97;;;25.50;99.90;;;;;;6236325;28;84883;-72
2023/09/07 11:48:48;;;;;;;5.32;4.82;;;25.40;99.90;;;;;;6236351;28;84200;-72
2023/09/07 11:51:50;;;;;;;6.25;5.63;;;25.40;99.90;;;;;;6237052;28;84417;-71
2023/09/07 11:54:52;;;;;;;6.28;5.47;;;25.30;99.90;;;;;;6237823;28;84056;-71
2023/09/07 11:57:54;;;;;;;5.80;5.30;;;25.20;99.90;;;;;;6236023;28;83998;-72
2023/09/07 12:00:57;;;;;;;4.97;4.53;;;25.20;99.90;;;;;;6236977;28;82914;-71
2023/09/07 12:04:00;;;;;;;5.50;5.00;;;25.20;99.90;;;;;;6225593;28;84035;-72
2023/09/07 12:07:02;;;;;;;5.80;5.20;;;25.10;99.90;;;;;;6236795;28;83212;-72
2023/09/07 12:10:05;;;;;;;6.43;5.20;;;25.10;99.90;;;;;;6236353;28;82694;-72
2023/09/07 12:13:08;;;;;;;5.47;4.93;;;25.00;99.90;;;;;;6237264;28;82897;-72
2023/09/07 12:16:10;;;;;;;5.22;4.72;;;25.10;99.90;;;;;;6234597;28;85319;-71
2023/09/07 12:19:13;;;;;;;5.07;4.68;;;25.00;99.90;;;;;;6236480;28;84024;-72
2023/09/07 12:22:15;;;;;;;5.30;4.80;;;25.00;99.90;;;;;;6235826;28;84068;-72
2023/09/07 12:25:17;;;;;;;4.85;4.45;;;24.90;99.90;;;;;;6236088;28;82923;-72
2023/09/07 12:28:20;;;;;;;5.60;5.00;;;24.90;99.90;;;;;;6236855;28;84355;-71
2023/09/07 12:31:22;;;;;;;5.22;4.70;;;24.90;99.90;;;;;;6236132;28;84496;-72
2023/09/07 12:34:26;;;;;;;5.07;4.68;;;24.90;99.90;;;;;;6233726;28;83949;-72
2023/09/07 12:37:28;;;;;;;5.30;4.82;;;24.90;99.90;;;;;;6233418;28;82438;-71
2023/09/07 12:40:30;;;;;;;4.97;4.50;;;24.80;99.90;;;;;;6231690;28;83956;-72
2023/09/07 12:43:32;;;;;;;5.07;4.65;;;24.90;99.90;;;;;;6236561;28;84718;-71
2023/09/07 12:46:35;;;;;;;4.75;4.32;;;24.80;99.90;;;;;;6235596;28;85013;-72
2023/09/07 12:49:38;;;;;;;5.05;4.38;;;24.80;99.90;;;;;;6234190;28;84181;-72
2023/09/07 12:52:41;;;;;;;5.22;4.72;;;24.80;99.90;;;;;;6237538;28;84118;-71
2023/09/07 12:55:43;;;;;;;4.90;4.35;;;24.70;99.90;;;;;;6235961;28;82933;-72
2023/09/07 12:58:45;;;;;;;4.70;4.30;;;24.70;99.90;;;;;;6235118;28;81956;-72
2023/09/07 13:01:47;;;;;;;5.28;4.60;;;24.70;99.90;;;;;;6234909;28;84052;-71
2023/09/07 13:04:51;;;;;;;4.68;4.28;;;24.70;99.90;;;;;;6235507;28;83989;-72
2023/09/07 13:07:54;;;;;;;4.85;4.30;;;24.70;99.90;;;;;;6235759;28;83641;-72
2023/09/07 13:10:56;;;;;;;4.90;4.50;;;24.70;99.90;;;;;;6229807;28;83737;-72
2023/09/07 13:13:59;;;;;;;6.28;4.97;;;24.60;99.90;;;;;;6234728;28;82796;-72
2023/09/07 13:17:01;;;;;;;4.75;4.28;;;24.70;99.90;;;;;;6232658;28;84888;-71
2023/09/07 13:20:04;;;;;;;4.72;4.30;;;24.70;99.90;;;;;;6235596;28;83914;-72
2023/09/07 13:23:06;;;;;;;5.13;4.38;;;24.60;99.90;;;;;;6235507;27;84105;-72
2023/09/07 13:26:08;;;;;;;4.80;4.32;;;24.60;99.90;;;;;;6230915;28;82918;-73
2023/09/07 13:29:10;;;;;;;5.30;4.78;;;24.70;99.90;;;;;;6230887;28;82920;-72
2023/09/07 13:32:12;;;;;;;5.60;4.50;;;24.60;99.90;;;;;;6234325;28;84225;-72
2023/09/07 13:35:16;;;;;;;4.78;4.38;;;24.60;99.90;;;;;;6232852;28;84053;-71
2023/09/07 13:38:18;;;;;;;4.55;4.15;;;24.60;99.90;;;;;;6234683;28;83372;-72
2023/09/07 13:41:20;;;;;;;4.68;4.28;;;24.60;99.90;;;;;;6234541;28;84046;-73
2023/09/07 13:44:22;;;;;;;4.85;4.45;;;24.60;99.90;;;;;;6234326;28;84371;-72
2023/09/07 13:47:24;;;;;;;4.68;4.20;;;24.60;99.90;;;;;;6227777;28;84963;-72
2023/09/07 13:50:29;;;;;;;4.72;4.32;;;24.60;99.90;;;;;;6232770;28;83996;-72
2023/09/07 13:53:31;;;;;;;4.50;4.10;;;24.60;99.90;;;;;;6234219;28;84707;-72
2023/09/07 13:56:33;;;;;;;4.75;4.13;;;24.60;99.90;;;;;;6233845;28;83980;-72
2023/09/07 13:59:36;;;;;;;4.50;4.10;;;24.60;99.90;;;;;;6234666;28;84122;-72
2023/09/07 14:02:38;;;;;;;5.20;4.68;;;24.60;99.90;;;;;;6233577;28;84044;-72
2023/09/07 14:05:41;;;;;;;4.40;4.00;;;24.50;99.90;;;;;;6233009;28;84213;-73
2023/09/07 14:08:45;;;;;;;4.25;3.95;;;24.50;99.90;;;;;;6233547;28;83190;-73
2023/09/07 14:11:46;;;;;;;4.72;4.18;;;24.50;99.90;;;;;;6230913;28;83959;-73
2023/09/07 14:14:48;;;;;;;4.75;4.25;;;24.60;99.90;;;;;;6234558;28;82911;-72
2023/09/07 14:17:50;;;;;;;4.30;3.90;;;24.50;99.90;;;;;;6224363;28;84889;-72
2023/09/07 14:20:57;;;;;;;3.90;3.60;;;24.50;99.90;;;;;;6232966;28;82924;-73
2023/09/07 14:24:01;;;;;;;4.30;3.90;;;24.50;99.90;;;;;;6225688;28;84160;-72
2023/09/07 14:27:04;;;;;;;4.18;3.78;;;24.50;99.90;;;;;;6226011;28;84106;-73
2023/09/07 14:30:07;;;;;;;5.15;4.57;;;24.50;99.90;;;;;;6233382;28;84058;-72
2023/09/07 14:33:09;;;;;;;4.50;4.10;;;24.50;99.90;;;;;;6233732;28;84125;-73
2023/09/07 14:36:12;;;;;;;5.05;3.92;;;24.50;99.90;;;;;;6225058;28;84077;-73
2023/09/07 14:39:15;;;;;;;4.28;3.97;;;24.50;99.90;;;;;;6227549;28;83607;-72
2023/09/07 14:42:19;;;;;;;4.28;3.90;;;24.50;99.90;;;;;;6231276;28;84132;-73
2023/09/07 14:45:21;;;;;;;4.25;3.95;;;24.50;99.90;;;;;;6227216;28;84133;-74
2023/09/07 14:48:23;;;;;;;4.32;4.00;;;24.50;99.90;;;;;;6231623;28;85146;-72
2023/09/07 14:51:28;;;;;;;4.32;4.03;;;24.50;99.90;;;;;;6230214;28;84054;-73
2023/09/07 14:54:30;;;;;;;4.15;3.85;;;24.50;99.90;;;;;;6234259;28;83846;-72
2023/09/07 14:57:33;;;;;;;4.30;3.80;;;24.50;99.90;;;;;;6232833;28;82680;-73
2023/09/07 15:00:38;;;;;;;4.40;4.00;;;24.50;99.90;;;;;;6233448;28;84234;-72
2023/09/07 15:03:41;;;;;;;4.13;3.83;;;24.50;99.90;;;;;;6232020;28;83223;-73
2023/09/07 15:06:46;;;;;;;4.75;4.13;;;24.50;99.90;;;;;;6232796;28;83650;-71
2023/09/07 15:09:51;;;;;;;4.38;3.97;;;24.50;99.90;;;;;;6224405;28;81621;-72
2023/09/07 15:12:54;;;;;;;3.92;3.38;;;24.50;99.90;;;;;;6233162;28;82410;-72
2023/09/07 15:15:56;;;;;;;4.38;3.97;;;24.50;99.90;;;;;;6232003;28;84532;-71
2023/09/07 15:19:00;;;;;;;4.20;3.80;;;24.50;99.90;;;;;;6231698;28;85253;-72
2023/09/07 15:22:04;;;;;;;5.57;4.28;;;24.50;99.90;;;;;;6232183;28;83022;-72
2023/09/07 15:25:08;;;;;;;5.63;3.90;;;24.50;99.90;;;;;;6232487;28;82966;-71
2023/09/07 15:28:11;;;;;;;8.10;3.78;;;24.40;99.90;;;;;;6233540;28;82984;-71
2023/09/07 15:31:14;;;;;;;4.65;3.88;;;24.40;99.90;;;;;;6232698;28;83139;-71
2023/09/07 15:34:17;;;;;;;4.70;3.88;;;24.50;99.90;;;;;;6232465;28;82858;-71
2023/09/07 15:37:23;;;;;;;4.38;3.83;;;24.40;99.90;;;;;;6232220;28;83118;-71
2023/09/07 15:40:27;;;;;;;4.10;3.70;;;24.40;99.90;;;;;;6231077;28;81310;-71
2023/09/07 15:43:31;;;;;;;4.65;4.00;;;24.40;99.90;;;;;;6231585;28;83309;-71
2023/09/07 15:46:35;;;;;;;5.00;3.85;;;24.40;99.90;;;;;;6232293;28;82981;-71
2023/09/07 15:49:44;;;;;;;4.13;3.72;;;24.40;99.90;;;;;;6232238;28;83903;-71